Terminal Aerodrome Forecast
Issued by NWS Portland, ME

Home | Current Version | Previous Version | Text Only | Print | Product List | Glossary On
Versions: 1 2 3 4 5 6 7 8 9 10 11 12 13 14 15 16 17 18 19
000
FTUS41 KGYX 071735
TAFCON
TAF
KCON 071735Z 0718/0818 16007KT P6SM -SHRA OVC035
     FM072000 19006KT P6SM SCT025 BKN050
     FM080300 18005KT 4SM BR OVC100
     FM081200 27005KT 5SM HZ BKN050
     FM081500 30008KT P6SM BKN100=

USA.gov is the U.S. government's official web portal to all federal, state and local government web resources and services.